Startpagina
METAR-TAF:

METAR-TAF

Vliegvelden :

Internationale luchthaven Koning Abdoel Aziz

Djedda, Saoedi-Arabië

breedte: 21-42N, lengte: 039-11E, hoogte: 15 m

Actueel weer

Dit bericht is 41 minuten geleden gemaakt, om 21:00 UTC
Wind 3 kt uit het westnoordwesten
Temperatuur 33°C
Vochtigheid 39%
Druk 1003 hPa
Zicht 10 km of meer
geen wolken onder 1500 m en geen cumulonimbus

METAR: OEJN 162100Z 30003KT CAVOK 33/17 Q1003 NOSIG

Tijdstip: 00:41 (21:41 UTC)

Verwachting

Dit bericht is 4 uur en het 41 minuten geleden gemaakt, om 17:00 UTC
Verwachting geldig van 16 om 18 UTC tot 17 om 24 UTC
Wind 6 kt uit het noorden
Zicht 10 km of meer
geen wolken onder 1500 m en geen cumulonimbus
Wijzigt naar
van 16 om 22 UTC tot 16 om 24 UTC
Wind 3 kt uit variabele richting
Wijzigt naar
van 17 om 06 UTC tot 17 om 08 UTC
Wind 13 kt uit het westen

TAF: OEJN 161700Z 1618/1724 01006KT CAVOK BECMG 1622/1624 VRB03KT BECMG 1706/1708 28013KT

Waarnemingen en weersverwachtingen van meer dan 4000 vliegvelden (METAR en TAF).

De beschikbare stations zijn de gele en rode punten op de kaart.

Ga met uw muis naar het station om de naam te zien.

Klik dan om waarnemingen en weersverwachtingen te zien.

kaart wijzigen: klik op de groene knoppen met een zwart kruis om in te zoomen, op de groene knop met een streepje om uit te zoomen of op de groene pijlen voor aangrenzende kaarten.


METAR-TAF: